createdAt,value
2018-12-25T00:00:48.266Z,10.40
2018-12-25T00:01:48.243Z,13.80
2018-12-25T00:02:48.222Z,10.90
2018-12-25T00:03:48.231Z,12.50
2018-12-25T00:04:48.227Z,13.90
2018-12-25T00:05:48.219Z,12.90
2018-12-25T00:06:48.184Z,12.10
2018-12-25T00:07:48.216Z,11.00
2018-12-25T00:08:48.169Z,12.10
2018-12-25T00:09:48.142Z,10.30
2018-12-25T00:10:48.964Z,11.70
2018-12-25T00:11:48.167Z,11.60
2018-12-25T00:12:48.118Z,10.90
2018-12-25T00:13:48.185Z,11.50
2018-12-25T00:14:48.095Z,13.20
2018-12-25T00:15:48.061Z,10.70
2018-12-25T00:16:48.040Z,10.50
2018-12-25T00:17:48.040Z,10.90
2018-12-25T00:18:48.050Z,10.00
2018-12-25T00:19:48.022Z,11.60
2018-12-25T00:20:48.121Z,11.50
2018-12-25T00:21:48.059Z,10.50
2018-12-25T00:22:48.020Z,12.00
2018-12-25T00:23:48.048Z,10.40
2018-12-25T00:24:47.973Z,10.60
2018-12-25T00:25:47.973Z,13.00
2018-12-25T00:26:48.057Z,13.20
2018-12-25T00:27:48.019Z,10.20
2018-12-25T00:28:47.955Z,10.40
2018-12-25T00:29:48.010Z,11.00
2018-12-25T00:30:47.918Z,11.20
2018-12-25T00:31:47.963Z,10.90
2018-12-25T00:32:47.893Z,13.30
2018-12-25T00:33:47.915Z,13.40
2018-12-25T00:34:47.923Z,13.10
2018-12-25T00:35:47.863Z,13.10
2018-12-25T00:36:47.876Z,12.80
2018-12-25T00:37:47.846Z,13.60
2018-12-25T00:38:47.842Z,13.20
2018-12-25T00:39:56.805Z,13.30
2018-12-25T00:40:47.783Z,13.40
2018-12-25T00:41:57.122Z,12.20
2018-12-25T00:42:58.215Z,11.10
2018-12-25T00:43:47.763Z,11.80
2018-12-25T00:44:47.753Z,11.50
2018-12-25T00:45:47.776Z,13.00
2018-12-25T00:46:47.775Z,10.70
2018-12-25T00:47:47.827Z,12.20
2018-12-25T00:48:47.742Z,12.40
2018-12-25T00:49:58.125Z,11.40
2018-12-25T00:50:47.734Z,13.30
2018-12-25T00:51:47.897Z,14.10
2018-12-25T00:52:47.664Z,13.90
2018-12-25T00:53:47.659Z,14.20
2018-12-25T00:54:47.625Z,12.00
2018-12-25T00:55:47.629Z,13.90
2018-12-25T00:56:47.615Z,11.30
2018-12-25T00:57:47.600Z,16.30
2018-12-25T00:58:47.598Z,14.80
2018-12-25T00:59:47.576Z,13.70
2018-12-25T01:00:47.574Z,14.70
2018-12-25T01:01:47.577Z,13.50
2018-12-25T01:02:47.594Z,11.20
2018-12-25T01:03:47.549Z,13.80
2018-12-25T01:04:47.553Z,13.80
2018-12-25T01:05:47.516Z,12.70
2018-12-25T01:06:47.521Z,14.10
2018-12-25T01:07:47.493Z,13.60
2018-12-25T01:08:47.499Z,17.50
2018-12-25T01:09:47.483Z,14.60
2018-12-25T01:10:47.479Z,15.30
2018-12-25T01:11:47.499Z,13.70
2018-12-25T01:12:47.458Z,12.80
2018-12-25T01:13:47.429Z,13.70
2018-12-25T01:14:47.435Z,11.80
2018-12-25T01:15:47.415Z,13.70
2018-12-25T01:16:47.472Z,12.90
2018-12-25T01:17:47.402Z,11.80
2018-12-25T01:18:47.401Z,11.00
2018-12-25T01:19:47.508Z,12.80
2018-12-25T01:20:52.074Z,13.10
2018-12-25T01:21:47.564Z,14.40
2018-12-25T01:22:47.345Z,12.10
2018-12-25T01:23:47.368Z,11.10
2018-12-25T01:24:47.316Z,12.20
2018-12-25T01:25:47.334Z,13.60
2018-12-25T01:26:47.343Z,13.20
2018-12-25T01:27:47.320Z,13.60
2018-12-25T01:28:47.322Z,14.50
2018-12-25T01:29:47.331Z,14.20
2018-12-25T01:30:47.257Z,16.00
2018-12-25T01:31:47.278Z,16.00
2018-12-25T01:32:47.509Z,16.00
2018-12-25T01:33:47.274Z,14.00
2018-12-25T01:34:47.278Z,14.00
2018-12-25T01:35:50.650Z,15.80
2018-12-25T01:36:47.206Z,16.40
2018-12-25T01:37:47.209Z,16.40
2018-12-25T01:38:47.217Z,16.20
2018-12-25T01:39:47.234Z,15.90
2018-12-25T01:40:47.358Z,16.00
2018-12-25T01:41:47.164Z,18.10
2018-12-25T01:42:47.133Z,17.40
2018-12-25T01:43:47.140Z,16.70
2018-12-25T01:44:47.138Z,16.90
2018-12-25T01:45:47.131Z,14.60
2018-12-25T01:46:47.137Z,15.20
2018-12-25T01:47:47.099Z,17.60
2018-12-25T01:48:47.067Z,21.00
2018-12-25T01:49:47.116Z,15.40
2018-12-25T01:50:47.085Z,18.40
2018-12-25T01:51:47.066Z,16.70
2018-12-25T01:52:47.035Z,16.00
2018-12-25T01:53:47.033Z,16.60
2018-12-25T01:54:47.050Z,18.00
2018-12-25T01:55:47.018Z,19.40
2018-12-25T01:56:47.012Z,16.20
2018-12-25T01:57:46.968Z,15.70
2018-12-25T01:58:46.963Z,15.60
2018-12-25T01:59:47.006Z,18.10
2018-12-25T02:00:46.961Z,16.00
2018-12-25T02:01:46.970Z,17.00
2018-12-25T02:02:46.938Z,18.50
2018-12-25T02:03:46.984Z,16.80
2018-12-25T02:04:46.902Z,16.10
2018-12-25T02:05:46.915Z,15.60
2018-12-25T02:06:46.881Z,16.40
2018-12-25T02:07:46.886Z,15.10
2018-12-25T02:08:46.875Z,15.20
2018-12-25T02:09:46.884Z,16.40
2018-12-25T02:10:55.676Z,13.40
2018-12-25T02:11:46.819Z,15.60
2018-12-25T02:12:56.208Z,16.10
2018-12-25T02:13:46.835Z,17.90
2018-12-25T02:14:46.776Z,16.40
2018-12-25T02:15:55.747Z,16.00
2018-12-25T02:16:46.778Z,15.40
2018-12-25T02:17:46.766Z,15.10
2018-12-25T02:18:46.766Z,17.10
2018-12-25T02:19:57.776Z,14.60
2018-12-25T02:20:46.769Z,14.70
2018-12-25T02:21:46.718Z,18.10
2018-12-25T02:22:46.718Z,17.10
2018-12-25T02:23:46.685Z,15.00
2018-12-25T02:24:46.703Z,14.70
2018-12-25T02:25:46.733Z,15.90
2018-12-25T02:26:46.679Z,15.40
2018-12-25T02:27:46.661Z,15.60
2018-12-25T02:30:04.148Z,15.90
2018-12-25T02:31:04.060Z,16.30
2018-12-25T02:32:04.081Z,15.10
2018-12-25T02:33:04.029Z,15.20
2018-12-25T02:34:04.040Z,16.30
2018-12-25T02:35:04.078Z,15.20
2018-12-25T02:36:04.045Z,16.70
2018-12-25T02:37:04.049Z,15.30
2018-12-25T02:38:04.042Z,14.80
2018-12-25T02:39:04.006Z,18.30
2018-12-25T02:40:03.975Z,15.40
2018-12-25T02:41:04.009Z,16.80
2018-12-25T02:42:03.925Z,17.90
2018-12-25T02:43:03.934Z,13.00
2018-12-25T02:44:03.964Z,15.50
2018-12-25T02:45:03.997Z,15.60
2018-12-25T02:46:03.936Z,16.10
2018-12-25T02:47:03.924Z,15.10
2018-12-25T02:48:03.878Z,15.20
2018-12-25T02:49:03.875Z,15.10
2018-12-25T02:50:04.825Z,15.20
2018-12-25T02:51:03.901Z,15.30
2018-12-25T02:52:03.878Z,16.10
2018-12-25T02:53:03.852Z,18.90
2018-12-25T02:54:03.960Z,19.20
2018-12-25T02:55:03.896Z,16.20
2018-12-25T02:56:03.827Z,14.90
2018-12-25T02:57:03.950Z,16.80
2018-12-25T02:58:03.758Z,17.00
2018-12-25T02:59:03.887Z,18.10
2018-12-25T03:00:03.830Z,16.20
2018-12-25T03:01:03.852Z,15.20
2018-12-25T03:02:03.784Z,14.40
2018-12-25T03:03:03.750Z,14.70
2018-12-25T03:04:03.794Z,16.20
2018-12-25T03:05:03.781Z,15.90
2018-12-25T03:06:03.778Z,15.60
2018-12-25T03:07:03.822Z,14.40
2018-12-25T03:08:03.750Z,14.20
2018-12-25T03:09:03.708Z,15.60
2018-12-25T03:10:03.691Z,16.60
2018-12-25T03:11:03.743Z,18.00
2018-12-25T03:12:03.678Z,14.20
2018-12-25T03:13:03.629Z,13.60
2018-12-25T03:14:03.624Z,15.70
2018-12-25T03:15:03.610Z,12.10
2018-12-25T03:16:03.635Z,16.40
2018-12-25T03:17:03.611Z,17.90
2018-12-25T03:18:03.691Z,13.90
2018-12-25T03:19:03.540Z,14.30
2018-12-25T03:20:03.577Z,13.40
2018-12-25T03:21:03.529Z,17.20
2018-12-25T03:22:03.580Z,18.00
2018-12-25T03:23:03.532Z,14.70
2018-12-25T03:24:03.558Z,17.00
2018-12-25T03:25:03.558Z,16.40
2018-12-25T03:26:03.495Z,13.40
2018-12-25T03:27:03.503Z,17.10
2018-12-25T03:28:03.521Z,14.00
2018-12-25T03:29:03.458Z,13.00
2018-12-25T03:30:03.503Z,15.60
2018-12-25T03:31:03.461Z,14.30
2018-12-25T03:32:03.500Z,14.70
2018-12-25T03:33:03.515Z,13.30
2018-12-25T03:34:03.462Z,15.90
2018-12-25T03:35:12.457Z,16.60
2018-12-25T03:36:03.435Z,13.50
2018-12-25T03:37:03.496Z,14.70
2018-12-25T03:38:03.434Z,12.70
2018-12-25T03:39:03.466Z,13.40
2018-12-25T03:40:07.896Z,13.40
2018-12-25T03:41:03.330Z,13.40
2018-12-25T03:42:03.369Z,14.00
2018-12-25T03:43:03.358Z,13.00
2018-12-25T03:44:03.427Z,13.40
2018-12-25T03:45:03.317Z,10.90
2018-12-25T03:46:03.313Z,11.50
2018-12-25T03:47:03.277Z,11.60
2018-12-25T03:48:03.316Z,12.40
2018-12-25T03:49:03.287Z,11.60
2018-12-25T03:50:10.614Z,11.10
2018-12-25T03:51:04.229Z,14.40
2018-12-25T03:52:03.348Z,11.60
2018-12-25T03:53:03.261Z,12.70
2018-12-25T03:54:03.279Z,12.00
2018-12-25T03:55:03.210Z,11.50
2018-12-25T03:56:03.194Z,11.30
2018-12-25T03:57:03.247Z,11.40
2018-12-25T03:58:03.151Z,11.20
2018-12-25T03:59:03.134Z,11.60
2018-12-25T04:00:03.172Z,11.60
2018-12-25T04:01:03.100Z,11.30
2018-12-25T04:02:03.183Z,13.30
2018-12-25T04:03:03.080Z,9.30
2018-12-25T04:04:03.133Z,10.40
2018-12-25T04:05:03.078Z,10.20
2018-12-25T04:06:03.182Z,12.50
2018-12-25T04:07:03.076Z,8.30
2018-12-25T04:08:03.207Z,11.20
2018-12-25T04:09:03.086Z,10.80
2018-12-25T04:10:03.036Z,10.50
2018-12-25T04:11:03.081Z,8.60
2018-12-25T04:12:03.029Z,11.20
2018-12-25T04:13:03.024Z,12.70
2018-12-25T04:14:03.009Z,10.00
2018-12-25T04:15:03.046Z,12.40
2018-12-25T04:16:02.995Z,8.90
2018-12-25T04:17:03.097Z,11.60
2018-12-25T04:18:02.992Z,11.60
2018-12-25T04:19:03.052Z,10.40
2018-12-25T04:20:02.907Z,9.20
2018-12-25T04:21:02.956Z,10.70
2018-12-25T04:22:02.926Z,10.40
2018-12-25T04:23:02.919Z,8.90
2018-12-25T04:24:02.899Z,11.10
2018-12-25T04:25:02.881Z,10.40
2018-12-25T04:26:02.856Z,9.50
2018-12-25T04:27:02.934Z,9.90
2018-12-25T04:28:02.937Z,9.30
2018-12-25T04:29:02.907Z,8.80
2018-12-25T04:30:02.880Z,10.10
2018-12-25T04:31:02.831Z,9.20
2018-12-25T04:32:02.857Z,9.90
2018-12-25T04:33:02.875Z,11.40
2018-12-25T04:34:02.781Z,9.40
2018-12-25T04:35:02.762Z,10.10
2018-12-25T04:36:02.803Z,8.60
2018-12-25T04:37:02.769Z,8.00
2018-12-25T04:38:02.853Z,8.40
2018-12-25T04:39:02.728Z,9.20
2018-12-25T04:40:02.738Z,7.30
2018-12-25T04:41:02.693Z,11.80
2018-12-25T04:42:02.669Z,7.20
2018-12-25T04:43:12.488Z,10.50
2018-12-25T04:44:11.977Z,8.80
2018-12-25T04:45:12.053Z,7.80
2018-12-25T04:46:02.615Z,7.60
2018-12-25T04:47:12.087Z,7.00
2018-12-25T04:48:12.101Z,11.00
2018-12-25T04:49:12.615Z,8.50
2018-12-25T04:50:02.619Z,8.10
2018-12-25T04:52:19.978Z,7.80
2018-12-25T04:53:29.355Z,7.70
2018-12-25T04:54:20.370Z,6.70
2018-12-25T04:55:19.951Z,8.60
2018-12-25T04:56:19.956Z,6.60
2018-12-25T04:57:19.956Z,6.90
2018-12-25T04:58:19.947Z,9.90
2018-12-25T04:59:19.899Z,6.80
2018-12-25T05:00:19.936Z,8.30
2018-12-25T05:01:19.901Z,7.30
2018-12-25T05:02:19.893Z,5.80
2018-12-25T05:03:19.924Z,6.70
2018-12-25T05:04:19.857Z,8.00
2018-12-25T05:05:19.860Z,7.90
2018-12-25T05:06:19.890Z,10.40
2018-12-25T05:07:19.835Z,8.20
2018-12-25T05:08:19.839Z,7.90
2018-12-25T05:09:19.836Z,8.00
2018-12-25T05:10:19.805Z,6.30
2018-12-25T05:11:19.815Z,8.40
2018-12-25T05:12:19.813Z,5.50
2018-12-25T05:13:19.830Z,7.30
2018-12-25T05:14:19.770Z,7.30
2018-12-25T05:15:19.728Z,8.10
2018-12-25T05:16:19.872Z,5.40
2018-12-25T05:17:19.743Z,5.80
2018-12-25T05:18:19.748Z,7.40
2018-12-25T05:19:19.746Z,5.20
2018-12-25T05:20:19.797Z,6.00
2018-12-25T05:21:19.723Z,6.70
2018-12-25T05:22:19.663Z,5.80
2018-12-25T05:23:19.659Z,6.60
2018-12-25T05:24:19.643Z,5.90
2018-12-25T05:25:19.635Z,9.80
2018-12-25T05:26:19.661Z,7.20
2018-12-25T05:27:19.649Z,7.10
2018-12-25T05:28:19.640Z,6.70
2018-12-25T05:29:19.617Z,5.50
2018-12-25T05:30:19.576Z,5.70
2018-12-25T05:31:19.578Z,5.20
2018-12-25T05:32:19.565Z,5.70
2018-12-25T05:33:19.601Z,5.10
2018-12-25T05:34:19.567Z,6.10
2018-12-25T05:35:19.547Z,5.00
2018-12-25T05:36:19.539Z,6.80
2018-12-25T05:37:19.530Z,6.90
2018-12-25T05:38:19.513Z,5.90
2018-12-25T05:39:19.538Z,6.60
2018-12-25T05:40:19.469Z,5.90
2018-12-25T05:41:19.463Z,4.70
2018-12-25T05:42:19.461Z,5.60
2018-12-25T05:43:19.453Z,6.60
2018-12-25T05:44:19.532Z,4.80
2018-12-25T05:45:19.486Z,5.10
2018-12-25T05:46:19.425Z,4.80
2018-12-25T05:47:19.419Z,6.10
2018-12-25T05:48:19.429Z,5.00
2018-12-25T05:49:19.435Z,6.50
2018-12-25T05:50:19.449Z,7.10
2018-12-25T05:51:19.417Z,5.60
2018-12-25T05:52:19.359Z,4.00
2018-12-25T05:53:19.356Z,4.70
2018-12-25T05:54:19.373Z,6.40
2018-12-25T05:55:19.552Z,4.00
2018-12-25T05:56:19.371Z,5.90
2018-12-25T05:57:19.304Z,4.70
2018-12-25T05:58:19.294Z,5.20
2018-12-25T05:59:19.342Z,6.20
2018-12-25T06:00:19.308Z,7.00
2018-12-25T06:01:19.246Z,5.20
2018-12-25T06:02:19.287Z,5.30
2018-12-25T06:03:19.248Z,4.80
2018-12-25T06:04:19.257Z,4.30
2018-12-25T06:05:19.237Z,4.80
2018-12-25T06:06:19.226Z,4.80
2018-12-25T06:07:19.231Z,4.20
2018-12-25T06:08:19.215Z,4.60
2018-12-25T06:09:19.187Z,4.50
2018-12-25T06:10:19.221Z,4.70
2018-12-25T06:11:19.163Z,5.20
2018-12-25T06:12:19.124Z,4.50
2018-12-25T06:13:19.150Z,5.80
2018-12-25T06:14:19.123Z,4.40
2018-12-25T06:15:19.170Z,4.60
2018-12-25T06:16:19.131Z,4.80
2018-12-25T06:17:19.090Z,3.90
2018-12-25T06:18:19.098Z,6.40
2018-12-25T06:19:19.084Z,4.80
2018-12-25T06:20:19.105Z,3.80
2018-12-25T06:21:19.142Z,4.50
2018-12-25T06:22:19.088Z,7.50
2018-12-25T06:23:19.059Z,8.70
2018-12-25T06:24:19.011Z,4.60
2018-12-25T06:25:18.999Z,4.40
2018-12-25T06:26:19.073Z,5.20
2018-12-25T06:27:18.977Z,6.40
2018-12-25T06:28:19.012Z,4.90
2018-12-25T06:29:18.962Z,4.30
2018-12-25T06:30:19.049Z,5.60
2018-12-25T06:31:18.938Z,5.60
2018-12-25T06:32:18.944Z,4.50
2018-12-25T06:33:18.920Z,5.00
2018-12-25T06:34:18.958Z,6.00
2018-12-25T06:35:18.925Z,5.50
2018-12-25T06:36:18.984Z,4.00
2018-12-25T06:37:18.894Z,3.40
2018-12-25T06:38:18.883Z,4.70
2018-12-25T06:39:18.857Z,4.70
2018-12-25T06:40:18.890Z,5.30
2018-12-25T06:41:18.837Z,5.60
2018-12-25T06:42:18.825Z,5.80
2018-12-25T06:43:18.805Z,4.50
2018-12-25T06:44:18.916Z,4.50
2018-12-25T06:45:18.804Z,4.80
2018-12-25T06:46:18.786Z,4.80
2018-12-25T06:47:18.769Z,4.20
2018-12-25T06:48:18.792Z,4.50
2018-12-25T06:49:18.812Z,4.10
2018-12-25T06:50:18.767Z,3.80
2018-12-25T06:51:18.740Z,4.90
2018-12-25T06:52:18.726Z,5.80
2018-12-25T06:53:18.740Z,4.20
2018-12-25T06:54:18.729Z,5.30
2018-12-25T06:55:18.693Z,3.80
2018-12-25T06:56:18.699Z,5.10
2018-12-25T06:57:18.680Z,5.00
2018-12-25T06:58:18.676Z,4.30
2018-12-25T06:59:18.640Z,4.60
2018-12-25T07:00:18.649Z,5.20
2018-12-25T07:01:18.624Z,5.40
2018-12-25T07:02:18.636Z,3.80
2018-12-25T07:03:18.642Z,5.20
2018-12-25T07:04:18.598Z,4.50
2018-12-25T07:05:18.615Z,5.90
2018-12-25T07:06:18.596Z,4.10
2018-12-25T07:07:18.638Z,5.00
2018-12-25T07:08:18.564Z,5.50
2018-12-25T07:09:18.566Z,6.10
2018-12-25T07:10:18.540Z,4.40
2018-12-25T07:11:18.556Z,4.50
2018-12-25T07:12:18.513Z,3.60
2018-12-25T07:13:18.570Z,3.30
2018-12-25T07:14:18.553Z,5.40
2018-12-25T07:15:18.481Z,5.10
2018-12-25T07:16:18.507Z,4.30
2018-12-25T07:17:18.496Z,6.00
2018-12-25T07:18:18.461Z,5.70
2018-12-25T07:19:18.512Z,4.90
2018-12-25T07:20:18.498Z,5.70
2018-12-25T07:21:18.471Z,5.30
2018-12-25T07:22:18.513Z,5.10
2018-12-25T07:23:18.456Z,4.30
2018-12-25T07:24:18.403Z,4.50
2018-12-25T07:25:18.393Z,6.40
2018-12-25T07:26:18.391Z,5.20
2018-12-25T07:27:18.392Z,7.00
2018-12-25T07:28:18.348Z,6.70
2018-12-25T07:29:18.366Z,5.10
2018-12-25T07:30:18.398Z,4.60
2018-12-25T07:31:18.384Z,6.00
2018-12-25T07:32:18.332Z,5.90
2018-12-25T07:33:18.359Z,6.80
2018-12-25T07:34:18.325Z,9.20
2018-12-25T07:35:18.783Z,6.20
2018-12-25T07:36:18.263Z,6.30
2018-12-25T07:37:18.299Z,5.10
2018-12-25T07:38:18.293Z,6.20
2018-12-25T07:39:18.243Z,6.20
2018-12-25T07:40:18.259Z,4.90
2018-12-25T07:41:18.226Z,5.90
2018-12-25T07:42:18.233Z,7.40
2018-12-25T07:43:18.198Z,6.80
2018-12-25T07:44:18.183Z,6.70
2018-12-25T07:45:18.246Z,8.10
2018-12-25T07:46:18.165Z,5.70
2018-12-25T07:47:18.173Z,5.80
2018-12-25T07:48:18.174Z,7.70
2018-12-25T07:49:18.182Z,5.70
2018-12-25T07:50:18.150Z,6.70
2018-12-25T07:51:20.884Z,6.90
2018-12-25T07:52:18.097Z,7.30
2018-12-25T07:53:18.123Z,5.30
2018-12-25T07:54:18.111Z,6.30
2018-12-25T07:55:18.088Z,4.90
2018-12-25T07:56:18.160Z,5.40
2018-12-25T07:57:18.058Z,6.10
2018-12-25T07:58:18.033Z,7.80
2018-12-25T07:59:18.048Z,7.40
2018-12-25T08:00:19.531Z,6.50
2018-12-25T08:01:17.999Z,5.50
2018-12-25T08:02:18.035Z,5.10
2018-12-25T08:03:17.996Z,5.70
2018-12-25T08:04:17.972Z,5.30
2018-12-25T08:05:17.984Z,6.40
2018-12-25T08:06:18.087Z,5.00
2018-12-25T08:07:17.953Z,6.70
2018-12-25T08:08:17.945Z,5.10
2018-12-25T08:09:17.956Z,5.20
2018-12-25T08:10:17.987Z,5.90
2018-12-25T08:11:17.912Z,5.70
2018-12-25T08:12:17.914Z,5.40
2018-12-25T08:13:17.912Z,6.40
2018-12-25T08:14:17.996Z,5.40
2018-12-25T08:15:17.876Z,5.60
2018-12-25T08:16:17.842Z,6.00
2018-12-25T08:17:17.956Z,6.10
2018-12-25T08:18:17.849Z,7.40
2018-12-25T08:19:17.881Z,7.70
2018-12-25T08:20:17.799Z,4.30
2018-12-25T08:21:17.825Z,5.70
2018-12-25T08:22:17.830Z,5.90
2018-12-25T08:23:17.828Z,6.10
2018-12-25T08:24:17.780Z,6.40
2018-12-25T08:25:17.831Z,7.50
2018-12-25T08:26:17.728Z,5.00
2018-12-25T08:27:17.747Z,6.80
2018-12-25T08:28:17.758Z,4.70
2018-12-25T08:29:17.715Z,5.70
2018-12-25T08:30:17.692Z,5.80
2018-12-25T08:31:17.699Z,6.00
2018-12-25T08:32:17.732Z,6.10
2018-12-25T08:33:17.723Z,5.60
2018-12-25T08:34:17.692Z,6.20
2018-12-25T08:35:17.664Z,5.50
2018-12-25T08:36:17.629Z,6.20
2018-12-25T08:37:17.669Z,5.20
2018-12-25T08:38:17.625Z,6.50
2018-12-25T08:39:17.647Z,4.40
2018-12-25T08:40:17.593Z,4.50
2018-12-25T08:41:17.666Z,6.70
2018-12-25T08:42:17.598Z,6.30
2018-12-25T08:43:17.571Z,5.20
2018-12-25T08:44:26.894Z,5.10
2018-12-25T08:45:17.624Z,5.00
2018-12-25T08:46:17.642Z,6.10
2018-12-25T08:47:17.529Z,6.60
2018-12-25T08:48:17.540Z,4.20
2018-12-25T08:49:17.485Z,6.20
2018-12-25T08:51:28.654Z,9.70
2018-12-25T08:52:28.663Z,6.00
2018-12-25T08:53:28.661Z,5.00
2018-12-25T08:54:28.610Z,6.80
2018-12-25T08:55:28.630Z,6.00
2018-12-25T08:56:29.494Z,5.00
2018-12-25T08:57:28.636Z,6.20
2018-12-25T08:58:28.584Z,5.90
2018-12-25T08:59:28.579Z,5.80
2018-12-25T09:00:28.559Z,4.70
2018-12-25T09:01:28.600Z,4.70
2018-12-25T09:02:28.595Z,4.60
2018-12-25T09:03:28.580Z,6.10
2018-12-25T09:04:28.564Z,4.60
2018-12-25T09:05:28.579Z,4.30
2018-12-25T09:06:28.541Z,5.00
2018-12-25T09:07:28.616Z,4.10
2018-12-25T09:08:34.684Z,5.80
2018-12-25T09:09:29.532Z,5.80
2018-12-25T09:10:28.502Z,5.20
2018-12-25T09:11:28.486Z,6.30
2018-12-25T09:12:28.486Z,5.40
2018-12-25T09:13:28.493Z,4.40
2018-12-25T09:14:28.509Z,5.50
2018-12-25T09:15:28.441Z,5.50
2018-12-25T09:16:33.234Z,3.90
2018-12-25T09:17:28.398Z,4.90
2018-12-25T09:18:28.404Z,3.80
2018-12-25T09:19:29.389Z,5.60
2018-12-25T09:20:28.430Z,4.50
2018-12-25T09:21:28.444Z,5.30
2018-12-25T09:22:28.381Z,4.20
2018-12-25T09:23:28.338Z,7.20
2018-12-25T09:24:28.399Z,5.30
2018-12-25T09:25:28.345Z,5.50
2018-12-25T09:26:28.315Z,5.20
2018-12-25T09:27:28.293Z,5.20
2018-12-25T09:28:28.478Z,5.90
2018-12-25T09:29:28.288Z,6.70
2018-12-25T09:30:28.292Z,4.70
2018-12-25T09:31:28.238Z,4.80
2018-12-25T09:32:28.281Z,5.30
2018-12-25T09:33:28.253Z,4.70
2018-12-25T09:34:28.278Z,5.90
2018-12-25T09:35:28.238Z,5.20
2018-12-25T09:36:28.225Z,3.90
2018-12-25T09:37:28.194Z,4.90
2018-12-25T09:38:29.020Z,5.70
2018-12-25T09:39:28.157Z,4.40
2018-12-25T09:40:28.415Z,4.90
2018-12-25T09:41:28.172Z,4.90
2018-12-25T09:42:28.166Z,6.70
2018-12-25T09:43:28.173Z,4.60
2018-12-25T09:44:28.143Z,6.50
2018-12-25T09:45:28.127Z,5.40
2018-12-25T09:46:28.106Z,6.10
2018-12-25T09:47:28.323Z,4.80
2018-12-25T09:48:28.198Z,5.60
2018-12-25T09:49:28.188Z,5.40
2018-12-25T09:50:28.057Z,5.20
2018-12-25T09:51:28.070Z,3.70
2018-12-25T09:52:28.889Z,5.30
2018-12-25T09:53:28.096Z,3.70
2018-12-25T09:54:28.076Z,5.50
2018-12-25T09:55:28.037Z,5.10
2018-12-25T09:56:28.980Z,5.60
2018-12-25T09:57:28.510Z,4.70
2018-12-25T09:58:28.005Z,6.10
2018-12-25T09:59:27.949Z,4.20
2018-12-25T10:00:28.086Z,4.20
2018-12-25T10:01:27.930Z,5.40
2018-12-25T10:02:27.966Z,5.40
2018-12-25T10:03:27.994Z,6.70
2018-12-25T10:04:27.949Z,5.50
2018-12-25T10:05:28.589Z,5.20
2018-12-25T10:06:28.515Z,5.30
2018-12-25T10:07:27.920Z,6.10
2018-12-25T10:08:27.842Z,5.70
2018-12-25T10:09:27.857Z,5.00
2018-12-25T10:10:27.842Z,4.70
2018-12-25T10:11:27.964Z,5.00
2018-12-25T10:12:27.957Z,4.90
2018-12-25T10:13:27.790Z,5.60
2018-12-25T10:14:27.825Z,4.90
2018-12-25T10:15:27.788Z,4.90
2018-12-25T10:16:28.471Z,4.80
2018-12-25T10:17:28.510Z,5.90
2018-12-25T10:18:27.747Z,5.30
2018-12-25T10:19:27.823Z,6.40
2018-12-25T10:20:28.308Z,9.00
2018-12-25T10:21:27.739Z,6.90
2018-12-25T10:22:27.755Z,7.70
2018-12-25T10:23:27.678Z,5.10
2018-12-25T10:24:27.770Z,6.30
2018-12-25T10:25:27.715Z,5.60
2018-12-25T10:26:27.664Z,4.70
2018-12-25T10:27:27.660Z,4.00
2018-12-25T10:28:27.925Z,6.50
2018-12-25T10:29:27.862Z,4.60
2018-12-25T10:30:27.756Z,4.80
2018-12-25T10:31:28.393Z,5.30
2018-12-25T10:32:27.606Z,4.20
2018-12-25T10:33:27.670Z,5.10
2018-12-25T10:34:27.618Z,5.30
2018-12-25T10:35:27.573Z,5.70
2018-12-25T10:36:27.596Z,4.60
2018-12-25T10:37:27.609Z,4.50
2018-12-25T10:38:27.686Z,5.40
2018-12-25T10:39:28.399Z,5.50
2018-12-25T10:40:27.522Z,4.00
2018-12-25T10:41:27.538Z,4.70
2018-12-25T10:42:28.425Z,5.40
2018-12-25T10:43:28.646Z,5.20
2018-12-25T10:44:29.124Z,4.50
2018-12-25T10:45:27.459Z,5.80
2018-12-25T10:46:27.452Z,10.00
2018-12-25T10:47:27.432Z,6.10
2018-12-25T10:48:28.028Z,5.30
2018-12-25T10:49:27.426Z,5.40
2018-12-25T10:50:27.454Z,4.80
2018-12-25T10:51:27.395Z,7.00
2018-12-25T10:52:27.407Z,6.60
2018-12-25T10:53:27.359Z,5.40
2018-12-25T10:54:27.407Z,5.30
2018-12-25T10:55:29.968Z,4.90
2018-12-25T10:56:27.894Z,4.40
2018-12-25T10:57:29.089Z,4.80
2018-12-25T10:58:27.331Z,5.10
2018-12-25T10:59:27.397Z,4.90
2018-12-25T11:00:27.372Z,5.20
2018-12-25T11:01:27.269Z,4.40
2018-12-25T11:02:27.729Z,4.50
2018-12-25T11:03:28.019Z,4.90
2018-12-25T11:04:27.271Z,5.70
2018-12-25T11:05:27.269Z,3.90
2018-12-25T11:06:27.298Z,4.80
2018-12-25T11:07:27.222Z,4.80
2018-12-25T11:08:29.029Z,4.10
2018-12-25T11:09:28.041Z,3.90
2018-12-25T11:10:28.049Z,3.30
2018-12-25T11:11:27.253Z,5.10
2018-12-25T11:12:27.223Z,3.50
2018-12-25T11:13:27.148Z,6.10
2018-12-25T11:14:27.164Z,5.10
2018-12-25T11:15:27.137Z,4.00
2018-12-25T11:16:27.141Z,3.60
2018-12-25T11:17:27.183Z,4.70
2018-12-25T11:18:27.100Z,5.70
2018-12-25T11:19:27.096Z,3.30
2018-12-25T11:20:29.077Z,5.10
2018-12-25T11:21:27.112Z,4.80
2018-12-25T11:22:27.128Z,6.10
2018-12-25T11:23:27.058Z,4.80
2018-12-25T11:24:27.060Z,4.60
2018-12-25T11:25:28.007Z,3.90
2018-12-25T11:26:27.036Z,4.40
2018-12-25T11:27:27.040Z,4.10
2018-12-25T11:28:27.047Z,4.80
2018-12-25T11:29:27.045Z,6.40
2018-12-25T11:30:27.028Z,4.70
2018-12-25T11:31:26.970Z,4.70
2018-12-25T11:32:26.991Z,4.50
2018-12-25T11:33:27.021Z,3.90
2018-12-25T11:34:26.974Z,3.50
2018-12-25T11:35:26.946Z,3.90
2018-12-25T11:36:26.921Z,4.40
2018-12-25T11:37:26.961Z,4.70
2018-12-25T11:38:26.929Z,4.20
2018-12-25T11:39:26.920Z,2.10
2018-12-25T11:40:26.885Z,3.00
2018-12-25T11:41:26.864Z,4.10
2018-12-25T11:42:26.895Z,2.70
2018-12-25T11:43:26.846Z,3.60
2018-12-25T11:44:26.852Z,3.70
2018-12-25T11:45:26.840Z,4.80
2018-12-25T11:46:26.845Z,3.70
2018-12-25T11:47:26.836Z,2.60
2018-12-25T11:48:26.829Z,3.90
2018-12-25T11:49:26.777Z,4.40
2018-12-25T11:50:26.789Z,3.50
2018-12-25T11:51:26.790Z,3.70
2018-12-25T11:52:28.466Z,4.00
2018-12-25T11:53:26.756Z,3.60
2018-12-25T11:54:26.723Z,3.10
2018-12-25T11:55:26.727Z,3.50
2018-12-25T11:56:41.485Z,4.50
2018-12-25T11:57:26.794Z,2.90
2018-12-25T11:58:26.711Z,3.00
2018-12-25T11:59:27.501Z,6.10
2018-12-25T12:00:27.502Z,3.90
2018-12-25T12:01:26.779Z,4.50
2018-12-25T12:02:27.117Z,4.50
2018-12-25T12:03:26.662Z,3.40
2018-12-25T12:04:26.625Z,3.80
2018-12-25T12:05:26.638Z,5.20
2018-12-25T12:06:26.621Z,5.10
2018-12-25T12:07:26.640Z,3.50
2018-12-25T12:08:26.612Z,5.40
2018-12-25T12:09:28.944Z,3.90
2018-12-25T12:10:26.562Z,4.30
2018-12-25T12:11:26.607Z,3.80
2018-12-25T12:12:26.635Z,5.40
2018-12-25T12:13:26.581Z,3.50
2018-12-25T12:14:26.519Z,4.30
2018-12-25T12:15:26.530Z,5.40
2018-12-25T12:16:26.510Z,5.70
2018-12-25T12:17:26.504Z,4.50
2018-12-25T12:18:27.411Z,3.50
2018-12-25T12:19:26.464Z,5.20
2018-12-25T12:20:26.483Z,4.90
2018-12-25T12:21:26.589Z,2.10
2018-12-25T12:22:26.452Z,5.20
2018-12-25T12:23:27.125Z,6.20
2018-12-25T12:24:27.513Z,14.30
2018-12-25T12:25:26.409Z,5.90
2018-12-25T12:26:27.072Z,5.40
2018-12-25T12:27:26.908Z,5.50
2018-12-25T12:28:27.408Z,4.50
2018-12-25T12:29:26.428Z,5.30
2018-12-25T12:30:26.388Z,4.90
2018-12-25T12:31:26.348Z,3.20
2018-12-25T12:32:26.409Z,4.40
2018-12-25T12:33:26.388Z,4.40
2018-12-25T12:34:26.383Z,4.90
2018-12-25T12:35:26.302Z,4.90
2018-12-25T12:36:26.280Z,6.60
2018-12-25T12:37:26.280Z,5.90
2018-12-25T12:38:26.280Z,5.40
2018-12-25T12:39:26.267Z,5.80
2018-12-25T12:40:26.278Z,4.80
2018-12-25T12:41:26.265Z,4.10
2018-12-25T12:42:26.259Z,7.10
2018-12-25T12:43:26.217Z,5.10
2018-12-25T12:44:26.209Z,6.90
2018-12-25T12:45:26.230Z,3.70
2018-12-25T12:46:26.191Z,5.00
2018-12-25T12:47:26.175Z,5.00
2018-12-25T12:48:26.218Z,6.20
2018-12-25T12:49:26.175Z,3.80
2018-12-25T12:50:26.179Z,3.90
2018-12-25T12:51:35.598Z,5.30
2018-12-25T12:52:26.142Z,4.50
2018-12-25T12:53:34.549Z,5.70
2018-12-25T12:54:26.202Z,7.30
2018-12-25T12:55:26.131Z,5.50
2018-12-25T12:56:26.093Z,5.20
2018-12-25T12:57:26.089Z,8.40
2018-12-25T12:58:26.069Z,4.90
2018-12-25T12:59:27.020Z,7.10
2018-12-25T13:00:26.066Z,4.80
2018-12-25T13:01:26.046Z,6.10
2018-12-25T13:02:26.053Z,4.10
2018-12-25T13:03:35.100Z,4.70
2018-12-25T13:04:26.031Z,4.60
2018-12-25T13:05:26.019Z,5.40
2018-12-25T13:06:25.975Z,6.20
2018-12-25T13:07:25.994Z,4.90
2018-12-25T13:08:25.950Z,5.40
2018-12-25T13:09:25.929Z,4.00
2018-12-25T13:10:25.953Z,6.70
2018-12-25T13:11:25.915Z,4.60
2018-12-25T13:12:25.921Z,4.00
2018-12-25T13:13:25.923Z,3.60